»·PEaware :: SWA1783 KSFO-KBUR

SWA1783 :: KSFO-KBUR

FLIGHT INFORMATION

Flight Status: Arrived
Operator:
Southwest Airlines
More flights by this operator :: More flights under this callsign
Pilot: Tyler B. (19112)
Aircraft: BOEING 737-300
(B733)
More flights by this aircraft type
Origin: KSFO San Francisco Intl
United States
Destination: KBUR Bob Hope-Burbank
United States
More flights between these airports :: More routes between these airports
Route: +SSTIK3 CISKO RDHOT ROKKR2
File this flight plan on PilotEdge
Remarks:
Altitude:
(Current/Filed)
33,000ft
Speed:
(Current/Filed)
446kts
Departed: 12-May-18 01:21 PM
Arrived: 12-May-18 02:14 PM
Distance/Time
Traveled:
283nm/0:53
Distance/Time
To Go:
Arrived

Flight Plot

Page will automatically refresh every two minutes.

Flight plan parsing failed; only flown route is shown


Map Options




Map Legend


Flown Route
Filed Route
Departure Airport
Arrival Airport
Navaid (VOR, NDB)
Fix

Horizontal Profiles

Position Reports

Time Latitude Longitude Heading Altitude Ground
Speed
12-May-18 12:54 37.612841 -122.383195 296 30ft 0kts
12-May-18 12:55 37.612841 -122.383195 296 30ft 0kts
12-May-18 12:56 37.612841 -122.383195 296 30ft 0kts
12-May-18 12:57 37.612841 -122.383195 296 30ft 0kts
12-May-18 12:58 37.612841 -122.383195 296 30ft 0kts
12-May-18 12:59 37.612841 -122.383195 296 30ft 0kts
12-May-18 13:00 37.612841 -122.383195 296 30ft 0kts
12-May-18 13:01 37.612841 -122.383195 296 30ft 0kts
12-May-18 13:02 37.612841 -122.383195 296 30ft 0kts
12-May-18 13:03 37.612841 -122.383195 296 30ft 0kts
12-May-18 13:04 37.612841 -122.383195 296 30ft 0kts
12-May-18 13:05 37.612841 -122.383195 296 30ft 0kts
12-May-18 13:06 37.612841 -122.383195 296 30ft 0kts
12-May-18 13:07 37.612841 -122.383195 296 30ft 0kts
12-May-18 13:08 37.612841 -122.383195 296 30ft 0kts
12-May-18 13:09 37.612841 -122.383195 296 30ft 0kts
12-May-18 13:10 37.612841 -122.383195 296 30ft 0kts
12-May-18 13:11 37.612841 -122.383195 296 30ft 0kts
12-May-18 13:12 37.612841 -122.383195 296 30ft 0kts
12-May-18 13:13 37.612841 -122.383194 296 30ft 0kts
12-May-18 13:14 37.612841 -122.383194 296 30ft 0kts
12-May-18 13:15 37.612759 -122.382987 296 30ft 2kts
12-May-18 13:16 37.612656 -122.382337 240 30ft 2kts
12-May-18 13:17 37.612843 -122.382134 206 30ft 0kts
12-May-18 13:18 37.612439 -122.382384 206 30ft 7kts
12-May-18 13:19 37.608783 -122.383900 181 30ft 9kts
12-May-18 13:20 37.608438 -122.383763 127 30ft 4kts
12-May-18 13:21 37.617520 -122.376451 28 23ft 141kts
12-May-18 13:22 37.661663 -122.358880 0 1688ft 216kts
12-May-18 13:23 37.702202 -122.399030 251 4348ft 243kts
12-May-18 13:24 37.638036 -122.433021 193 6764ft 288kts
12-May-18 13:25 37.558223 -122.455197 195 9716ft 305kts
12-May-18 13:26 37.476162 -122.457542 140 10072ft 325kts
12-May-18 13:27 37.405001 -122.371919 134 12150ft 369kts
12-May-18 13:28 37.353858 -122.310096 134 13905ft 383kts
12-May-18 13:29 37.324687 -122.274904 133 15171ft 379kts
12-May-18 13:30 37.247838 -122.182377 133 17599ft 392kts
12-May-18 13:31 37.167925 -122.086518 132 19687ft 408kts
12-May-18 13:32 37.085074 -121.987446 133 21620ft 422kts
12-May-18 13:33 36.998615 -121.884404 134 23337ft 438kts
12-May-18 13:34 36.908961 -121.777920 135 24944ft 453kts
12-May-18 13:35 36.816350 -121.668617 135 26384ft 467kts
12-May-18 13:36 36.720739 -121.555849 135 27746ft 480kts
12-May-18 13:37 36.622869 -121.440829 135 29024ft 491kts
12-May-18 13:38 36.523556 -121.324472 136 30391ft 497kts
12-May-18 13:39 36.424302 -121.208490 136 31778ft 496kts
12-May-18 13:40 36.320518 -121.097452 142 32963ft 495kts
12-May-18 13:41 36.214967 -120.989541 142 33017ft 491kts
12-May-18 13:42 36.110392 -120.882647 142 33005ft 489kts
12-May-18 13:43 36.005915 -120.776230 142 33013ft 490kts
12-May-18 13:44 35.900841 -120.669597 142 33012ft 489kts
12-May-18 13:45 35.796593 -120.564457 142 33013ft 490kts
12-May-18 13:46 35.691662 -120.458804 143 33008ft 489kts
12-May-18 13:47 35.586379 -120.353850 142 33012ft 490kts
12-May-18 13:48 35.484185 -120.246749 142 33014ft 490kts
12-May-18 13:49 35.380521 -120.138782 142 33026ft 490kts
12-May-18 13:50 35.276912 -120.031251 141 33030ft 490kts
12-May-18 13:51 35.175336 -119.926182 142 33028ft 490kts
12-May-18 13:52 35.071455 -119.819494 141 29434ft 496kts
12-May-18 13:53 34.972080 -119.717596 141 27915ft 477kts
12-May-18 13:54 34.871149 -119.613177 135 25285ft 478kts
12-May-18 13:55 34.786743 -119.487320 129 21324ft 475kts
12-May-18 13:56 34.712514 -119.374398 127 18863ft 448kts
12-May-18 13:57 34.642238 -119.266410 123 16228ft 413kts
12-May-18 13:58 34.590699 -119.162166 119 15989ft 338kts
12-May-18 13:59 34.535811 -119.059710 140 14268ft 389kts
12-May-18 14:00 34.450303 -118.982898 143 11403ft 365kts
12-May-18 14:01 34.377291 -118.911432 141 9796ft 318kts
12-May-18 14:02 34.315894 -118.844656 139 8313ft 282kts
12-May-18 14:03 34.264130 -118.782821 115 8053ft 249kts
12-May-18 14:04 34.236433 -118.707560 114 7983ft 245kts
12-May-18 14:05 34.219782 -118.635665 59 6977ft 224kts
12-May-18 14:06 34.256771 -118.652774 272 6009ft 202kts
12-May-18 14:07 34.230479 -118.679627 142 5101ft 197kts
12-May-18 14:08 34.203700 -118.625370 109 4311ft 168kts
12-May-18 14:09 34.199573 -118.567063 90 4117ft 178kts
12-May-18 14:10 34.199655 -118.509928 92 3059ft 152kts
12-May-18 14:11 34.199013 -118.459056 93 2242ft 149kts
12-May-18 14:12 34.198428 -118.409873 92 1452ft 141kts
12-May-18 14:13 34.197890 -118.369807 92 800ft 134kts
12-May-18 14:14 34.197486 -118.350128 164 696ft 8kts
12-May-18 14:15 34.197127 -118.350709 276 697ft 2kts
12-May-18 14:16 34.197213 -118.353988 270 704ft 9kts
12-May-18 14:17 34.196698 -118.354780 175 705ft 0kts
12-May-18 14:18 34.196698 -118.354780 175 705ft 0kts
12-May-18 14:19 34.196698 -118.354780 175 705ft 0kts
12-May-18 14:20 34.196698 -118.354780 175 705ft 0kts
12-May-18 14:21 34.196698 -118.354780 175 705ft 0kts
12-May-18 14:22 34.196698 -118.354780 175 705ft 0kts

Navigation Log

Ident Type
Flight plan parsing failed, navigation log unavailable